Marystown, Canada
Current Conditions -  °F | °C
As of 6:00 PM on Saturday 20 Dec 2014 (Local Time) from LFVP Reporting Station
Overcast Overcast  
Wind Chill: 21°   Ceiling: 3400
Heat Index: 34°   Visibility: 6mi
Dew Point: 27°   Wind: 24mph
Humidity: 75%   Direction: 30°NNE
Pressure: 30.18"   Gusts: NA
Location:  47.17°N, 55.17°W
Report Text: LFVP 202100Z 03021KT 9999 OVC034 01/M03 Q1022 NOSIG
Loading
Personal Weather Stations






























Interactive Weather Map New forecast layout! Learn more

10-Day Weather Forecast

Advertisements
Track Severe Weather on mobile